createdAt,value
2019-01-29T00:02:12.856Z,94.72
2019-01-29T00:04:43.004Z,94.94
2019-01-29T00:07:13.175Z,95.07
2019-01-29T00:09:43.363Z,95.09
2019-01-29T00:12:13.554Z,94.86
2019-01-29T00:14:43.694Z,94.61
2019-01-29T00:17:13.954Z,94.91
2019-01-29T00:19:44.142Z,94.77
2019-01-29T00:22:14.389Z,94.75
2019-01-29T00:24:44.524Z,94.72
2019-01-29T00:27:14.971Z,94.82
2019-01-29T00:29:45.147Z,95.10
2019-01-29T00:32:15.657Z,95.41
2019-01-29T00:34:46.181Z,95.81
2019-01-29T00:37:16.436Z,95.90
2019-01-29T00:39:46.676Z,96.08
2019-01-29T00:42:17.109Z,96.18
2019-01-29T00:44:47.226Z,96.37
2019-01-29T00:47:17.451Z,96.45
2019-01-29T00:49:47.601Z,96.43
2019-01-29T00:52:18.241Z,96.06
2019-01-29T00:54:49.679Z,96.08
2019-01-29T00:57:20.010Z,96.09
2019-01-29T00:59:50.264Z,96.30
2019-01-29T01:02:20.520Z,96.49
2019-01-29T01:04:50.765Z,96.57
2019-01-29T01:07:20.979Z,96.67
2019-01-29T01:09:57.068Z,96.60
2019-01-29T01:12:23.400Z,96.43
2019-01-29T01:14:53.524Z,96.15
2019-01-29T01:17:23.850Z,95.75
2019-01-29T01:19:54.606Z,95.35
2019-01-29T01:22:34.226Z,95.11
2019-01-29T01:25:05.087Z,94.85
2019-01-29T01:27:35.451Z,94.61
2019-01-29T01:30:07.161Z,94.65
2019-01-29T01:32:37.519Z,94.92
2019-01-29T01:35:08.626Z,95.36
2019-01-29T01:37:38.792Z,95.63
2019-01-29T01:40:21.805Z,95.81
2019-01-29T01:42:51.965Z,95.62
2019-01-29T01:45:22.097Z,95.49
2019-01-29T01:47:52.415Z,95.71
2019-01-29T01:50:22.551Z,96.01
2019-01-29T01:52:59.088Z,96.17
2019-01-29T01:55:24.724Z,96.07
2019-01-29T01:57:55.104Z,95.86
2019-01-29T02:00:25.410Z,95.82
2019-01-29T02:02:55.599Z,95.76
2019-01-29T02:05:25.861Z,95.54
2019-01-29T02:07:55.990Z,95.57
2019-01-29T02:10:28.741Z,95.47
2019-01-29T02:12:59.104Z,95.51
2019-01-29T02:15:29.304Z,95.57
2019-01-29T02:18:00.651Z,95.73
2019-01-29T02:20:30.984Z,95.80
2019-01-29T02:23:07.778Z,95.82
2019-01-29T02:25:33.481Z,95.79
2019-01-29T02:28:03.989Z,95.71
2019-01-29T02:30:34.291Z,95.68
2019-01-29T02:33:04.601Z,95.18
2019-01-29T02:35:34.670Z,95.12
2019-01-29T02:38:04.924Z,94.92
2019-01-29T02:40:35.410Z,94.34
2019-01-29T02:43:05.586Z,93.68
2019-01-29T02:45:35.871Z,93.68
2019-01-29T02:48:06.585Z,93.59
2019-01-29T02:50:36.933Z,93.61
2019-01-29T02:53:17.830Z,93.68
2019-01-29T02:55:40.152Z,93.68
2019-01-29T02:58:10.479Z,93.72
2019-01-29T03:00:40.662Z,93.64
2019-01-29T03:03:10.915Z,93.41
2019-01-29T03:05:41.034Z,93.40
2019-01-29T03:08:12.363Z,93.16
2019-01-29T03:10:42.621Z,93.13
2019-01-29T03:13:12.795Z,93.09
2019-01-29T03:15:43.017Z,93.01
2019-01-29T03:18:13.233Z,92.74
2019-01-29T03:20:43.570Z,92.59
2019-01-29T03:23:13.749Z,92.22
2019-01-29T03:25:46.814Z,92.05
2019-01-29T03:28:16.935Z,92.17
2019-01-29T03:30:47.090Z,92.33
2019-01-29T03:33:17.402Z,92.02
2019-01-29T03:35:47.988Z,91.53
2019-01-29T03:38:18.337Z,91.67
2019-01-29T03:40:48.633Z,91.66
2019-01-29T03:43:18.929Z,91.54
2019-01-29T03:45:49.229Z,91.64
2019-01-29T03:48:19.578Z,91.55
2019-01-29T03:50:50.130Z,91.61
2019-01-29T03:53:20.368Z,91.63
2019-01-29T03:55:50.865Z,91.70
2019-01-29T03:58:21.065Z,91.81
2019-01-29T04:00:51.233Z,91.83
2019-01-29T04:03:21.385Z,91.51
2019-01-29T04:05:51.479Z,91.54
2019-01-29T04:08:21.834Z,91.59
2019-01-29T04:10:52.125Z,91.26
2019-01-29T04:13:22.245Z,91.14
2019-01-29T04:15:52.466Z,91.24
2019-01-29T04:18:23.807Z,91.41
2019-01-29T04:20:53.920Z,91.44
2019-01-29T04:23:25.015Z,91.47
2019-01-29T04:25:55.278Z,91.60
2019-01-29T04:28:25.421Z,91.74
2019-01-29T04:30:56.476Z,91.82
2019-01-29T04:33:26.766Z,92.10
2019-01-29T04:35:57.044Z,92.11
2019-01-29T04:38:27.160Z,92.17
2019-01-29T04:40:57.300Z,92.38
2019-01-29T04:43:27.557Z,93.03
2019-01-29T04:45:57.880Z,93.08
2019-01-29T04:48:28.115Z,92.73
2019-01-29T04:50:58.232Z,92.57
2019-01-29T04:53:28.475Z,92.71
2019-01-29T04:55:58.607Z,92.86
2019-01-29T04:58:28.860Z,92.93
2019-01-29T05:00:59.091Z,93.00
2019-01-29T05:03:29.195Z,92.86
2019-01-29T05:05:59.379Z,92.83
2019-01-29T05:08:29.720Z,93.01
2019-01-29T05:10:59.976Z,92.92
2019-01-29T05:13:30.105Z,92.84
2019-01-29T05:16:00.295Z,92.85
2019-01-29T05:18:32.148Z,92.70
2019-01-29T05:21:02.564Z,92.67
2019-01-29T05:23:32.810Z,92.73
2019-01-29T05:26:03.089Z,92.94
2019-01-29T05:28:33.258Z,93.03
2019-01-29T05:31:04.791Z,93.14
2019-01-29T05:33:35.231Z,93.07
2019-01-29T05:36:05.855Z,93.18
2019-01-29T05:38:35.947Z,93.21
2019-01-29T05:41:06.167Z,93.19
2019-01-29T05:43:36.265Z,93.33
2019-01-29T05:46:06.660Z,93.40
2019-01-29T05:48:36.846Z,93.53
2019-01-29T05:51:07.052Z,93.45
2019-01-29T05:53:37.714Z,93.42
2019-01-29T05:56:08.116Z,93.50
2019-01-29T05:58:38.463Z,93.49
2019-01-29T06:01:09.116Z,93.14
2019-01-29T06:03:39.891Z,93.08
2019-01-29T06:06:10.129Z,92.79
2019-01-29T06:08:40.382Z,92.64
2019-01-29T06:11:10.901Z,92.21
2019-01-29T06:13:41.649Z,92.26
2019-01-29T06:16:11.987Z,92.24
2019-01-29T06:18:42.696Z,92.32
2019-01-29T06:21:12.980Z,92.34
2019-01-29T06:23:43.123Z,92.31
2019-01-29T06:26:16.294Z,92.13
2019-01-29T06:28:46.475Z,92.10
2019-01-29T06:31:16.904Z,91.99
2019-01-29T06:33:47.090Z,91.99
2019-01-29T06:36:17.225Z,92.03
2019-01-29T06:38:47.444Z,92.26
2019-01-29T06:41:17.777Z,92.42
2019-01-29T06:43:48.003Z,92.85
2019-01-29T06:46:18.241Z,93.37
2019-01-29T06:48:48.962Z,93.39
2019-01-29T06:51:21.125Z,92.76
2019-01-29T06:53:51.635Z,92.57
2019-01-29T06:56:22.153Z,93.00
2019-01-29T06:58:52.435Z,93.18
2019-01-29T07:01:22.936Z,92.42
2019-01-29T07:03:53.344Z,92.78
2019-01-29T07:06:23.511Z,92.74
2019-01-29T07:08:53.801Z,92.71
2019-01-29T07:11:24.137Z,93.19
2019-01-29T07:13:54.284Z,93.87
2019-01-29T07:16:38.542Z,93.80
2019-01-29T07:19:14.758Z,93.41
2019-01-29T07:21:45.066Z,93.19
2019-01-29T07:24:15.380Z,93.06
2019-01-29T07:26:45.535Z,93.20
2019-01-29T07:29:15.646Z,93.30
2019-01-29T07:31:45.965Z,92.57
2019-01-29T07:34:16.229Z,92.64
2019-01-29T07:36:46.436Z,92.67
2019-01-29T07:39:16.597Z,92.53
2019-01-29T07:41:46.870Z,92.37
2019-01-29T07:44:17.081Z,92.37
2019-01-29T07:46:47.329Z,92.20
2019-01-29T07:49:17.641Z,92.01
2019-01-29T07:51:48.254Z,92.07
2019-01-29T07:54:18.497Z,92.09
2019-01-29T07:56:49.081Z,92.16
2019-01-29T07:59:32.522Z,92.07
2019-01-29T08:01:51.345Z,91.54
2019-01-29T08:04:21.448Z,91.37
2019-01-29T08:06:51.686Z,91.15
2019-01-29T08:09:21.937Z,90.93
2019-01-29T08:11:52.189Z,90.91
2019-01-29T08:14:22.340Z,90.77
2019-01-29T08:16:52.461Z,89.80
2019-01-29T08:19:22.632Z,89.14
2019-01-29T08:21:52.756Z,89.43
2019-01-29T08:24:23.003Z,89.33
2019-01-29T08:26:53.325Z,89.31
2019-01-29T08:29:23.662Z,89.09
2019-01-29T08:31:53.834Z,86.91
2019-01-29T08:34:24.414Z,87.06
2019-01-29T08:36:54.735Z,87.21
2019-01-29T08:39:25.068Z,87.47
2019-01-29T08:41:55.497Z,87.00
2019-01-29T08:44:26.205Z,85.00
2019-01-29T08:46:56.797Z,84.62
2019-01-29T08:49:29.499Z,84.53
2019-01-29T08:52:00.115Z,85.12
2019-01-29T08:54:30.411Z,84.73
2019-01-29T08:57:01.081Z,83.35
2019-01-29T08:59:31.715Z,83.91
2019-01-29T09:02:01.981Z,84.02
2019-01-29T09:04:35.465Z,83.96
2019-01-29T09:07:06.052Z,83.87
2019-01-29T09:09:36.549Z,83.50
2019-01-29T09:12:06.968Z,83.04
2019-01-29T09:14:40.600Z,81.74
2019-01-29T09:17:11.059Z,81.38
2019-01-29T09:19:41.687Z,81.44
2019-01-29T09:22:12.339Z,81.93
2019-01-29T09:24:43.257Z,81.60
2019-01-29T09:27:13.689Z,81.55
2019-01-29T09:29:43.942Z,81.97
2019-01-29T09:32:14.563Z,81.47
2019-01-29T09:34:45.138Z,82.20
2019-01-29T09:37:15.452Z,81.08
2019-01-29T09:39:47.326Z,80.37
2019-01-29T09:42:18.948Z,80.38
2019-01-29T09:44:49.710Z,79.76
2019-01-29T09:47:20.058Z,79.16
2019-01-29T09:49:50.519Z,79.23
2019-01-29T09:52:21.150Z,79.07
2019-01-29T09:54:51.488Z,78.31
2019-01-29T09:57:21.700Z,79.18
2019-01-29T09:59:51.939Z,79.42
2019-01-29T10:02:22.058Z,79.11
2019-01-29T10:04:52.285Z,78.87
2019-01-29T10:07:22.520Z,78.99
2019-01-29T10:09:52.966Z,77.39
2019-01-29T10:12:23.531Z,76.56
2019-01-29T10:14:53.938Z,76.86
2019-01-29T10:17:24.374Z,76.03
2019-01-29T10:20:02.299Z,75.31
2019-01-29T10:22:26.601Z,76.07
2019-01-29T10:24:56.833Z,75.50
2019-01-29T10:27:27.238Z,75.22
2019-01-29T10:29:57.366Z,74.71
2019-01-29T10:32:27.736Z,73.98
2019-01-29T10:34:57.966Z,75.26
2019-01-29T10:37:28.477Z,75.16
2019-01-29T10:39:58.914Z,74.10
2019-01-29T10:42:29.348Z,74.62
2019-01-29T10:44:59.560Z,74.21
2019-01-29T10:47:29.717Z,73.22
2019-01-29T10:50:00.315Z,73.41
2019-01-29T10:52:30.967Z,73.40
2019-01-29T10:55:01.218Z,72.73
2019-01-29T10:57:31.483Z,71.76
2019-01-29T11:00:02.199Z,70.27
2019-01-29T11:02:34.031Z,70.04
2019-01-29T11:05:05.003Z,70.39
2019-01-29T11:07:35.363Z,70.02
2019-01-29T11:10:08.417Z,68.84
2019-01-29T11:12:41.646Z,67.87
2019-01-29T11:15:26.218Z,67.92
2019-01-29T11:17:56.158Z,68.34
2019-01-29T11:20:26.753Z,69.36
2019-01-29T11:22:56.971Z,69.00
2019-01-29T11:25:28.461Z,67.50
2019-01-29T11:27:58.897Z,67.26
2019-01-29T11:30:30.062Z,67.43
2019-01-29T11:33:00.449Z,65.05
2019-01-29T11:35:32.227Z,65.81
2019-01-29T11:38:02.684Z,65.86
2019-01-29T11:40:33.593Z,66.12
2019-01-29T11:43:04.788Z,64.29
2019-01-29T11:45:47.407Z,63.41
2019-01-29T11:48:18.126Z,64.09
2019-01-29T11:50:48.746Z,62.25
2019-01-29T11:53:19.237Z,63.77
2019-01-29T11:55:49.709Z,63.01
2019-01-29T11:58:20.212Z,60.48
2019-01-29T12:01:07.939Z,60.13
2019-01-29T12:03:38.232Z,59.72
2019-01-29T12:06:09.079Z,57.91
2019-01-29T12:08:39.396Z,59.06
2019-01-29T12:11:09.552Z,59.67
2019-01-29T12:13:39.888Z,58.50
2019-01-29T12:16:10.203Z,57.41
2019-01-29T12:18:40.688Z,57.53
2019-01-29T12:29:45.108Z,57.53
2019-01-29T12:32:15.453Z,56.50
2019-01-29T12:34:45.808Z,59.12
2019-01-29T12:37:16.446Z,57.81
2019-01-29T12:39:47.062Z,57.13
2019-01-29T12:42:17.389Z,58.06
2019-01-29T12:44:47.608Z,57.94
2019-01-29T12:47:17.781Z,60.28
2019-01-29T12:49:48.081Z,58.74
2019-01-29T12:52:37.923Z,57.11
2019-01-29T12:55:09.608Z,56.83
2019-01-29T12:57:42.152Z,53.32
2019-01-29T13:00:15.073Z,52.54
2019-01-29T13:02:45.342Z,50.19
2019-01-29T13:05:15.486Z,45.10
2019-01-29T13:07:45.791Z,43.24
2019-01-29T13:10:18.833Z,43.30
2019-01-29T13:12:49.440Z,43.79
2019-01-29T13:15:22.699Z,44.91
2019-01-29T13:17:53.163Z,45.08
2019-01-29T13:20:23.675Z,46.13
2019-01-29T13:22:54.421Z,46.13
2019-01-29T13:25:24.818Z,46.59
2019-01-29T13:27:56.079Z,44.61
2019-01-29T13:30:32.136Z,44.40
2019-01-29T13:33:02.758Z,45.76
2019-01-29T13:35:36.553Z,43.76
2019-01-29T13:38:07.643Z,42.57
2019-01-29T13:40:37.932Z,42.68
2019-01-29T13:43:08.682Z,43.93
2019-01-29T13:45:39.288Z,44.48
2019-01-29T13:48:09.824Z,44.10
2019-01-29T13:50:48.272Z,43.62
2019-01-29T13:53:18.554Z,41.72
2019-01-29T13:55:48.788Z,40.71
2019-01-29T13:58:19.063Z,42.03
2019-01-29T14:00:49.547Z,42.77
2019-01-29T14:03:20.114Z,43.47
2019-01-29T14:05:50.654Z,43.37
2019-01-29T14:08:21.059Z,43.67
2019-01-29T14:10:51.507Z,43.04
2019-01-29T14:13:22.020Z,43.76
2019-01-29T14:15:56.733Z,42.93
2019-01-29T14:18:29.162Z,44.34
2019-01-29T14:21:01.161Z,42.92
2019-01-29T14:23:34.473Z,43.54
2019-01-29T14:26:05.241Z,44.50
2019-01-29T14:28:36.568Z,44.45
2019-01-29T14:31:07.588Z,44.27
2019-01-29T14:33:38.145Z,45.84
2019-01-29T14:36:16.643Z,46.28
2019-01-29T14:39:11.673Z,45.72
2019-01-29T14:41:41.954Z,45.70
2019-01-29T14:44:21.142Z,45.00
2019-01-29T14:46:51.650Z,45.38
2019-01-29T14:49:22.127Z,46.35
2019-01-29T14:51:57.775Z,47.31
2019-01-29T14:54:27.333Z,47.27
2019-01-29T14:56:57.620Z,47.15
2019-01-29T14:59:29.105Z,47.58
2019-01-29T15:01:59.639Z,48.88
2019-01-29T15:04:30.236Z,49.15
2019-01-29T15:07:00.637Z,49.05
2019-01-29T15:09:30.947Z,51.47
2019-01-29T15:12:01.771Z,51.90
2019-01-29T15:14:32.091Z,52.41
2019-01-29T15:17:20.304Z,51.92
2019-01-29T15:19:52.813Z,52.61
2019-01-29T15:22:23.401Z,52.24
2019-01-29T15:24:53.557Z,53.36
2019-01-29T15:27:25.271Z,54.28
2019-01-29T15:29:55.512Z,53.64
2019-01-29T15:32:25.982Z,55.10
2019-01-29T15:34:56.599Z,55.43
2019-01-29T15:37:27.015Z,55.89
2019-01-29T15:39:57.302Z,56.96
2019-01-29T15:42:29.359Z,56.66
2019-01-29T15:44:59.579Z,57.65
2019-01-29T15:47:29.995Z,59.02
2019-01-29T15:50:00.310Z,58.99
2019-01-29T15:52:30.515Z,61.08
2019-01-29T15:55:00.749Z,61.40
2019-01-29T15:57:30.939Z,61.28
2019-01-29T16:00:01.531Z,61.97
2019-01-29T16:02:32.242Z,63.22
2019-01-29T16:05:03.168Z,65.16
2019-01-29T16:07:35.216Z,65.89
2019-01-29T16:10:07.448Z,65.28
2019-01-29T16:12:41.314Z,66.45
2019-01-29T16:15:15.551Z,66.46
2019-01-29T16:17:45.973Z,66.32
2019-01-29T16:20:18.260Z,66.52
2019-01-29T16:22:49.328Z,66.91
2019-01-29T16:25:21.082Z,65.63
2019-01-29T16:27:51.546Z,66.24
2019-01-29T16:30:25.996Z,66.42
2019-01-29T16:32:56.683Z,66.88
2019-01-29T16:35:30.601Z,67.04
2019-01-29T16:38:01.371Z,67.39
2019-01-29T16:40:32.464Z,67.84
2019-01-29T16:43:02.794Z,67.66
2019-01-29T16:45:34.521Z,68.12
2019-01-29T16:48:05.600Z,68.87
2019-01-29T16:50:36.168Z,69.45
2019-01-29T16:53:07.299Z,70.62
2019-01-29T16:55:37.608Z,70.74
2019-01-29T16:58:08.798Z,70.90
2019-01-29T17:00:39.803Z,71.43
2019-01-29T17:03:10.168Z,73.31
2019-01-29T17:05:40.879Z,73.31
2019-01-29T17:08:12.097Z,73.51
2019-01-29T17:10:43.073Z,73.53
2019-01-29T17:13:13.628Z,73.60
2019-01-29T17:15:44.135Z,74.95
2019-01-29T17:18:14.464Z,74.81
2019-01-29T17:20:45.421Z,74.83
2019-01-29T17:23:16.353Z,74.87
2019-01-29T17:25:46.665Z,75.25
2019-01-29T17:28:16.953Z,75.69
2019-01-29T17:30:47.859Z,76.22
2019-01-29T17:33:18.817Z,76.77
2019-01-29T17:35:49.318Z,76.93
2019-01-29T17:38:19.619Z,77.36
2019-01-29T17:40:49.995Z,78.06
2019-01-29T17:43:20.342Z,78.71
2019-01-29T17:45:51.274Z,78.67
2019-01-29T17:48:22.205Z,78.88
2019-01-29T17:50:52.675Z,78.90
2019-01-29T17:53:23.123Z,79.46
2019-01-29T17:55:53.779Z,79.76
2019-01-29T17:58:27.231Z,79.91
2019-01-29T18:01:00.446Z,80.48
2019-01-29T18:03:31.046Z,80.85
2019-01-29T18:06:01.400Z,80.72
2019-01-29T18:08:31.950Z,80.88
2019-01-29T18:11:02.578Z,81.36
2019-01-29T18:13:33.145Z,81.50
2019-01-29T18:16:03.591Z,81.59
2019-01-29T18:18:34.272Z,81.72
2019-01-29T18:21:04.777Z,81.98
2019-01-29T18:23:35.414Z,82.31
2019-01-29T18:26:06.012Z,82.25
2019-01-29T18:28:36.497Z,82.42
2019-01-29T18:31:07.066Z,82.51
2019-01-29T18:33:38.165Z,82.44
2019-01-29T18:36:08.849Z,82.45
2019-01-29T18:38:39.253Z,82.60
2019-01-29T18:41:10.550Z,82.85
2019-01-29T18:43:41.335Z,83.23
2019-01-29T18:46:11.645Z,83.40
2019-01-29T18:48:41.935Z,83.84
2019-01-29T18:51:12.191Z,83.94
2019-01-29T18:53:42.633Z,84.13
2019-01-29T18:56:13.253Z,84.20
2019-01-29T18:58:44.198Z,84.33
2019-01-29T19:01:14.715Z,84.29
2019-01-29T19:03:45.114Z,84.53
2019-01-29T19:06:15.764Z,84.66
2019-01-29T19:08:46.185Z,85.01
2019-01-29T19:11:16.520Z,84.94
2019-01-29T19:13:46.773Z,85.08
2019-01-29T19:16:17.468Z,85.31
2019-01-29T19:18:48.037Z,85.64
2019-01-29T19:21:18.414Z,85.59
2019-01-29T19:23:49.175Z,85.15
2019-01-29T19:26:19.735Z,85.28
2019-01-29T19:28:50.016Z,85.73
2019-01-29T19:31:20.713Z,86.00
2019-01-29T19:33:51.351Z,86.21
2019-01-29T19:36:21.880Z,86.46
2019-01-29T19:38:52.597Z,86.64
2019-01-29T19:41:23.140Z,86.94
2019-01-29T19:43:53.753Z,86.81
2019-01-29T19:46:24.258Z,87.02
2019-01-29T19:48:56.457Z,87.22
2019-01-29T19:51:27.300Z,87.53
2019-01-29T19:53:57.723Z,87.69
2019-01-29T19:56:29.644Z,87.75
2019-01-29T19:59:00.180Z,87.75
2019-01-29T20:01:30.979Z,87.68
2019-01-29T20:04:03.083Z,87.83
2019-01-29T20:06:33.777Z,88.02
2019-01-29T20:09:07.455Z,88.15
2019-01-29T20:11:38.011Z,88.32
2019-01-29T20:14:08.832Z,88.26
2019-01-29T20:16:39.737Z,88.25
2019-01-29T20:19:10.151Z,88.36
2019-01-29T20:21:40.691Z,88.44
2019-01-29T20:24:11.321Z,88.56
2019-01-29T20:26:41.744Z,88.82
2019-01-29T20:29:12.170Z,89.17
2019-01-29T20:31:42.837Z,89.57
2019-01-29T20:34:13.314Z,89.51
2019-01-29T20:36:46.124Z,89.26
2019-01-29T20:39:15.808Z,89.31
2019-01-29T20:41:46.251Z,89.51
2019-01-29T20:44:16.990Z,89.64
2019-01-29T20:46:47.476Z,89.82
2019-01-29T20:49:18.995Z,90.18
2019-01-29T20:51:49.770Z,90.25
2019-01-29T20:54:20.249Z,90.16
2019-01-29T20:56:51.111Z,90.09
2019-01-29T20:59:21.642Z,90.36
2019-01-29T21:01:52.231Z,90.61
2019-01-29T21:04:23.173Z,90.65
2019-01-29T21:06:56.032Z,90.57
2019-01-29T21:09:26.832Z,90.61
2019-01-29T21:11:57.235Z,90.68
2019-01-29T21:14:27.539Z,90.61
2019-01-29T21:16:57.993Z,90.70
2019-01-29T21:19:28.671Z,90.63
2019-01-29T21:21:59.394Z,90.61
2019-01-29T21:24:30.114Z,90.65
2019-01-29T21:27:00.613Z,90.91
2019-01-29T21:29:31.419Z,90.94
2019-01-29T21:32:01.771Z,90.60
2019-01-29T21:34:32.403Z,90.52
2019-01-29T21:37:02.871Z,91.02
2019-01-29T21:39:33.199Z,91.02
2019-01-29T21:42:04.897Z,92.23
2019-01-29T21:44:35.481Z,91.94
2019-01-29T21:47:05.719Z,92.66
2019-01-29T21:49:36.086Z,92.33
2019-01-29T21:52:06.800Z,92.44
2019-01-29T21:54:37.630Z,92.36
2019-01-29T21:57:15.036Z,92.43
2019-01-29T22:00:01.370Z,92.73
2019-01-29T22:02:33.170Z,92.76
2019-01-29T22:05:03.453Z,92.96
2019-01-29T22:07:33.899Z,92.79
2019-01-29T22:10:04.671Z,93.32
2019-01-29T22:12:36.929Z,93.14
2019-01-29T22:15:12.146Z,92.70
2019-01-29T22:17:42.511Z,92.70
2019-01-29T22:20:15.435Z,92.62
2019-01-29T22:22:45.716Z,92.66
2019-01-29T22:25:17.640Z,92.60
2019-01-29T22:27:48.216Z,92.84
2019-01-29T22:30:21.039Z,92.43
2019-01-29T22:33:01.202Z,92.12
2019-01-29T22:35:31.373Z,91.95
2019-01-29T22:38:01.540Z,91.71
2019-01-29T22:40:31.775Z,91.72
2019-01-29T22:43:02.445Z,91.87
2019-01-29T22:45:35.654Z,91.97
2019-01-29T22:48:09.307Z,92.30
2019-01-29T22:50:43.043Z,92.33
2019-01-29T22:53:13.398Z,92.37
2019-01-29T22:55:45.558Z,92.67
2019-01-29T22:58:15.891Z,92.48
2019-01-29T23:01:02.114Z,92.48
2019-01-29T23:03:39.578Z,92.91
2019-01-29T23:06:34.643Z,92.79
2019-01-29T23:09:09.129Z,92.71
2019-01-29T23:11:39.320Z,92.64
2019-01-29T23:14:09.690Z,92.54
2019-01-29T23:16:40.850Z,92.60
2019-01-29T23:19:10.986Z,92.71
2019-01-29T23:21:41.423Z,92.68
2019-01-29T23:24:12.096Z,92.89
2019-01-29T23:26:42.435Z,92.77
2019-01-29T23:29:12.587Z,92.72
2019-01-29T23:31:43.050Z,93.54
2019-01-29T23:34:13.253Z,93.75
2019-01-29T23:36:43.525Z,93.28
2019-01-29T23:39:14.022Z,93.17
2019-01-29T23:41:44.469Z,93.39
2019-01-29T23:44:14.961Z,94.08
2019-01-29T23:46:45.125Z,93.61
2019-01-29T23:49:15.297Z,93.97
2019-01-29T23:51:47.202Z,91.84
2019-01-29T23:54:17.610Z,91.65
2019-01-29T23:56:47.976Z,91.99
2019-01-29T23:59:18.120Z,92.18
